Time,TemperatureF,DewpointF,PressureIn,WindDirection,WindDirectionDegrees,WindSpeedMPH,WindSpeedGustMPH,Humidity,HourlyPrecipIn,Conditions,Clouds,dailyrainin,SoftwareType,DateUTC
2013-08-13 00:03:00,49.9,49.8,0.00,NW,322,0.0,-999.0,99,0.00,,,-99.99,,2013-08-13 08:03:00,
2013-08-13 00:08:00,49.8,49.8,0.00,North,11,0.1,-999.0,99,0.00,,,-99.99,,2013-08-13 08:08:00,
2013-08-13 00:15:00,49.9,49.9,0.00,East,92,0.2,-999.0,99,0.00,,,-99.99,,2013-08-13 08:15:00,
2013-08-13 00:20:00,49.8,49.8,0.00,NE,40,0.5,-999.0,99,0.00,,,-99.99,,2013-08-13 08:20:00,
2013-08-13 00:25:00,49.9,49.8,0.00,ESE,103,0.0,-999.0,99,0.00,,,-99.99,,2013-08-13 08:25:00,
2013-08-13 00:30:00,49.8,49.8,0.00,ENE,69,0.0,-999.0,99,0.00,,,-99.99,,2013-08-13 08:30:00,
2013-08-13 00:35:00,49.6,49.5,0.00,NNW,340,1.1,-999.0,99,0.00,,,-99.99,,2013-08-13 08:35:00,
2013-08-13 00:40:00,49.5,49.5,0.00,East,93,1.1,-999.0,99,0.00,,,-99.99,,2013-08-13 08:40:00,
2013-08-13 00:45:00,49.4,49.3,0.00,ESE,105,1.0,-999.0,99,0.00,,,-99.99,,2013-08-13 08:45:00,
2013-08-13 00:50:00,49.3,49.3,0.00,NNW,340,0.6,-999.0,99,0.00,,,-99.99,,2013-08-13 08:50:00,
2013-08-13 00:55:00,49.2,49.1,0.00,NW,325,0.1,-999.0,99,0.00,,,-99.99,,2013-08-13 08:55:00,
2013-08-13 01:00:00,49.0,49.0,0.00,East,98,0.7,-999.0,99,0.00,,,-99.99,,2013-08-13 09:00:00,
2013-08-13 01:05:00,49.1,49.1,0.00,NNE,32,0.6,-999.0,99,0.00,,,-99.99,,2013-08-13 09:05:00,
2013-08-13 01:11:00,49.2,49.2,0.00,ENE,61,1.7,-999.0,99,0.00,,,-99.99,,2013-08-13 09:11:00,
2013-08-13 01:16:00,48.9,48.9,0.00,South,191,0.6,-999.0,99,0.00,,,-99.99,,2013-08-13 09:16:00,
2013-08-13 01:21:00,48.8,48.8,0.00,ENE,77,0.9,-999.0,99,0.00,,,-99.99,,2013-08-13 09:21:00,
2013-08-13 01:26:00,48.8,48.8,0.00,East,90,0.2,-999.0,99,0.00,,,-99.99,,2013-08-13 09:26:00,
2013-08-13 01:31:00,48.9,48.9,0.00,NE,43,0.3,-999.0,99,0.00,,,-99.99,,2013-08-13 09:31:00,
2013-08-13 01:36:00,48.7,48.7,0.00,West,259,1.9,-999.0,99,0.00,,,-99.99,,2013-08-13 09:36:00,
2013-08-13 01:41:00,48.7,48.6,0.00,WSW,250,0.2,-999.0,99,0.00,,,-99.99,,2013-08-13 09:41:00,
2013-08-13 01:46:00,48.6,48.5,0.00,WNW,290,6.7,-999.0,99,0.00,,,-99.99,,2013-08-13 09:46:00,
2013-08-13 01:52:00,48.6,48.6,0.00,WNW,290,6.3,-999.0,99,0.00,,,-99.99,,2013-08-13 09:52:00,
2013-08-13 01:57:00,48.9,48.8,0.00,NW,307,9.8,-999.0,99,0.00,,,-99.99,,2013-08-13 09:57:00,
2013-08-13 02:02:00,48.6,48.6,0.00,WNW,293,2.8,-999.0,99,0.00,,,-99.99,,2013-08-13 10:02:00,
2013-08-13 02:07:00,48.6,48.6,0.00,ENE,64,1.0,-999.0,99,0.00,,,-99.99,,2013-08-13 10:07:00,
2013-08-13 02:12:00,48.7,48.7,0.00,East,94,0.3,-999.0,99,0.00,,,-99.99,,2013-08-13 10:12:00,
2013-08-13 02:17:00,48.6,48.6,0.00,NE,55,0.0,-999.0,99,0.00,,,-99.99,,2013-08-13 10:17:00,
2013-08-13 02:22:00,48.4,48.4,0.00,NW,307,2.4,-999.0,99,0.00,,,-99.99,,2013-08-13 10:22:00,
2013-08-13 02:27:00,48.6,48.6,0.00,NW,306,2.9,-999.0,99,0.00,,,-99.99,,2013-08-13 10:27:00,
2013-08-13 02:32:00,48.6,48.5,0.00,ESE,110,0.1,-999.0,99,0.00,,,-99.99,,2013-08-13 10:32:00,
2013-08-13 02:37:00,48.6,48.6,0.00,WNW,286,0.3,-999.0,99,0.00,,,-99.99,,2013-08-13 10:37:00,
2013-08-13 02:42:00,48.5,48.5,0.00,SE,140,0.0,-999.0,99,0.00,,,-99.99,,2013-08-13 10:42:00,
2013-08-13 02:47:00,48.5,48.5,0.00,SW,227,1.8,-999.0,99,0.00,,,-99.99,,2013-08-13 10:47:00,
2013-08-13 02:52:00,48.6,48.6,0.00,WSW,245,0.0,-999.0,99,0.00,,,-99.99,,2013-08-13 10:52:00,
2013-08-13 02:57:00,48.4,48.4,0.00,North,351,0.8,-999.0,99,0.00,,,-99.99,,2013-08-13 10:57:00,
2013-08-13 03:02:00,48.6,48.5,0.00,SSE,157,3.0,-999.0,99,0.00,,,-99.99,,2013-08-13 11:02:00,
2013-08-13 03:07:00,48.6,48.5,0.00,WNW,283,0.3,-999.0,99,0.00,,,-99.99,,2013-08-13 11:07:00,
2013-08-13 03:12:00,48.5,48.5,0.00,SSE,156,0.9,-999.0,99,0.00,,,-99.99,,2013-08-13 11:12:00,
2013-08-13 03:17:00,48.6,48.5,0.00,WNW,283,4.9,-999.0,99,0.00,,,-99.99,,2013-08-13 11:17:00,
2013-08-13 03:24:00,48.6,48.5,0.00,SW,218,1.7,-999.0,99,0.00,,,-99.99,,2013-08-13 11:24:00,
2013-08-13 03:29:00,48.4,48.3,0.00,NNW,346,6.4,-999.0,99,0.00,,,-99.99,,2013-08-13 11:29:00,
2013-08-13 03:34:00,48.4,48.4,0.00,WSW,253,0.2,-999.0,99,0.00,,,-99.99,,2013-08-13 11:34:00,
2013-08-13 03:39:00,48.5,48.5,0.00,SSW,212,0.6,-999.0,99,0.00,,,-99.99,,2013-08-13 11:39:00,
2013-08-13 03:44:00,48.4,48.3,0.00,WSW,252,2.9,-999.0,99,0.00,,,-99.99,,2013-08-13 11:44:00,
2013-08-13 03:49:00,48.4,48.4,0.00,WNW,290,2.7,-999.0,99,0.00,,,-99.99,,2013-08-13 11:49:00,
2013-08-13 03:54:00,48.4,48.4,0.00,WNW,288,0.7,-999.0,99,0.00,,,-99.99,,2013-08-13 11:54:00,
2013-08-13 03:59:00,48.3,48.0,0.00,West,261,1.5,-999.0,100,0.00,,,-99.99,,2013-08-13 11:59:00,
2013-08-13 04:04:00,48.3,48.2,0.00,WNW,283,0.7,-999.0,99,0.00,,,-99.99,,2013-08-13 12:04:00,
2013-08-13 04:09:00,48.1,48.0,0.00,NW,323,5.0,-999.0,100,0.00,,,-99.99,,2013-08-13 12:09:00,
2013-08-13 04:14:00,48.2,48.2,0.00,SSW,203,1.1,-999.0,99,0.00,,,-99.99,,2013-08-13 12:14:00,
2013-08-13 04:19:00,48.1,48.0,0.00,NW,304,0.7,-999.0,99,0.00,,,-99.99,,2013-08-13 12:19:00,
2013-08-13 04:24:00,48.2,48.2,0.00,East,89,1.2,-999.0,99,0.00,,,-99.99,,2013-08-13 12:24:00,
2013-08-13 04:29:00,48.2,48.1,0.00,ESE,108,0.7,-999.0,99,0.00,,,-99.99,,2013-08-13 12:29:00,
2013-08-13 04:34:00,48.2,48.1,0.00,West,277,0.1,-999.0,99,0.00,,,-99.99,,2013-08-13 12:34:00,
2013-08-13 04:39:00,48.0,48.0,0.00,NE,34,0.3,-999.0,99,0.00,,,-99.99,,2013-08-13 12:39:00,
2013-08-13 04:44:00,48.1,48.1,0.00,East,90,1.5,-999.0,99,0.00,,,-99.99,,2013-08-13 12:44:00,
2013-08-13 04:49:00,48.1,48.0,0.00,West,281,6.8,-999.0,99,0.00,,,-99.99,,2013-08-13 12:49:00,
2013-08-13 04:55:00,48.3,48.0,0.00,SE,126,0.8,-999.0,100,0.00,,,-99.99,,2013-08-13 12:55:00,
2013-08-13 05:00:00,48.1,48.0,0.00,NNW,342,1.4,-999.0,100,0.00,,,-99.99,,2013-08-13 13:00:00,
2013-08-13 05:05:00,48.2,48.0,0.00,SSW,211,0.4,-999.0,100,0.00,,,-99.99,,2013-08-13 13:05:00,
2013-08-13 05:10:00,48.3,48.2,0.00,North,0,1.5,-999.0,99,0.00,,,-99.99,,2013-08-13 13:10:00,
2013-08-13 05:15:00,48.2,48.2,0.00,WNW,287,2.7,-999.0,99,0.00,,,-99.99,,2013-08-13 13:15:00,
2013-08-13 05:20:00,48.1,48.0,0.00,NW,308,7.9,-999.0,100,0.00,,,-99.99,,2013-08-13 13:20:00,
2013-08-13 05:25:00,47.9,47.8,0.00,NW,314,9.4,-999.0,99,0.00,,,-99.99,,2013-08-13 13:25:00,
2013-08-13 05:30:00,48.0,47.0,0.00,WNW,297,4.4,-999.0,100,0.00,,,-99.99,,2013-08-13 13:30:00,
2013-08-13 05:35:00,48.1,48.0,0.00,NE,48,0.0,-999.0,100,0.00,,,-99.99,,2013-08-13 13:35:00,
2013-08-13 05:40:00,48.0,47.9,0.00,South,188,0.2,-999.0,99,0.00,,,-99.99,,2013-08-13 13:40:00,
2013-08-13 05:45:00,48.0,47.9,0.00,SSW,211,0.0,-999.0,99,0.00,,,-99.99,,2013-08-13 13:45:00,
2013-08-13 05:50:00,48.0,47.9,0.00,South,185,0.4,-999.0,99,0.00,,,-99.99,,2013-08-13 13:50:00,
2013-08-13 05:55:00,47.9,47.8,0.00,South,188,1.4,-999.0,99,0.00,,,-99.99,,2013-08-13 13:55:00,
2013-08-13 06:00:00,47.9,47.0,0.00,NW,318,2.4,-999.0,100,0.00,,,-99.99,,2013-08-13 14:00:00,
2013-08-13 06:06:00,47.8,47.8,0.00,NNE,20,3.2,-999.0,99,0.00,,,-99.99,,2013-08-13 14:06:00,
2013-08-13 06:11:00,47.8,47.8,0.00,NE,46,0.8,-999.0,99,0.00,,,-99.99,,2013-08-13 14:11:00,
2013-08-13 06:16:00,47.9,47.9,0.00,NE,40,1.3,-999.0,99,0.00,,,-99.99,,2013-08-13 14:16:00,
2013-08-13 06:21:00,47.9,47.0,0.00,SE,142,1.5,-999.0,100,0.00,,,-99.99,,2013-08-13 14:21:00,
2013-08-13 06:26:00,47.8,47.8,0.00,NNW,338,1.1,-999.0,99,0.00,,,-99.99,,2013-08-13 14:26:00,
2013-08-13 06:31:00,47.8,47.7,0.00,NW,305,0.8,-999.0,99,0.00,,,-99.99,,2013-08-13 14:31:00,
2013-08-13 06:36:00,47.8,47.0,0.00,NW,308,0.0,-999.0,100,0.00,,,-99.99,,2013-08-13 14:36:00,
2013-08-13 06:41:00,47.9,47.8,0.00,NW,307,1.7,-999.0,99,0.00,,,-99.99,,2013-08-13 14:41:00,
2013-08-13 06:46:00,47.8,47.0,0.00,NNW,340,0.0,-999.0,100,0.00,,,-99.99,,2013-08-13 14:46:00,
2013-08-13 06:51:00,47.8,47.0,0.00,NW,316,2.3,-999.0,100,0.00,,,-99.99,,2013-08-13 14:51:00,
2013-08-13 06:56:00,47.7,47.6,0.00,NNE,20,2.3,-999.0,100,0.00,,,-99.99,,2013-08-13 14:56:00,
2013-08-13 07:01:00,47.7,47.7,0.00,SSE,165,2.0,-999.0,99,0.00,,,-99.99,,2013-08-13 15:01:00,
2013-08-13 07:06:00,47.7,47.7,0.00,NW,305,0.2,-999.0,99,0.00,,,-99.99,,2013-08-13 15:06:00,
2013-08-13 07:11:00,47.7,47.6,0.00,SSW,198,2.5,-999.0,99,0.00,,,-99.99,,2013-08-13 15:11:00,
2013-08-13 07:16:00,47.8,47.8,0.00,East,87,0.6,-999.0,99,0.00,,,-99.99,,2013-08-13 15:16:00,
2013-08-13 07:21:00,47.8,47.0,0.00,SW,218,0.8,-999.0,100,0.00,,,-99.99,,2013-08-13 15:21:00,
2013-08-13 07:26:00,47.8,47.0,0.00,SSW,203,1.8,-999.0,100,0.00,,,-99.99,,2013-08-13 15:26:00,
2013-08-13 07:31:00,47.7,47.0,0.00,South,185,1.3,-999.0,100,0.00,,,-99.99,,2013-08-13 15:31:00,
2013-08-13 07:36:00,47.8,47.7,0.00,SSE,160,0.8,-999.0,99,0.00,,,-99.99,,2013-08-13 15:36:00,
2013-08-13 07:41:00,47.8,47.8,0.00,West,270,4.5,-999.0,99,0.00,,,-99.99,,2013-08-13 15:41:00,
2013-08-13 07:46:00,47.9,47.9,0.00,ENE,70,0.8,-999.0,100,0.00,,,-99.99,,2013-08-13 15:46:00,
2013-08-13 07:51:00,48.0,47.0,0.00,SE,145,1.4,-999.0,100,0.00,,,-99.99,,2013-08-13 15:51:00,
2013-08-13 07:57:00,47.8,47.8,0.00,SSW,195,0.1,-999.0,99,0.00,,,-99.99,,2013-08-13 15:57:00,
2013-08-13 08:02:00,48.0,47.0,0.00,SSE,154,0.4,-999.0,100,0.00,,,-99.99,,2013-08-13 16:02:00,
2013-08-13 08:07:00,47.8,47.0,0.00,WNW,302,11.0,-999.0,100,0.00,,,-99.99,,2013-08-13 16:07:00,
2013-08-13 08:12:00,47.9,47.0,0.00,WNW,296,5.3,-999.0,100,0.00,,,-99.99,,2013-08-13 16:12:00,
2013-08-13 08:17:00,47.8,47.8,0.00,NW,313,13.1,-999.0,99,0.00,,,-99.99,,2013-08-13 16:17:00,
2013-08-13 08:22:00,47.8,47.8,0.00,SSW,204,3.4,-999.0,99,0.00,,,-99.99,,2013-08-13 16:22:00,
2013-08-13 08:29:00,47.8,47.8,0.00,SSE,152,0.1,-999.0,99,0.00,,,-99.99,,2013-08-13 16:29:00,
2013-08-13 08:34:00,47.8,47.0,0.00,North,351,0.5,-999.0,100,0.00,,,-99.99,,2013-08-13 16:34:00,
2013-08-13 08:39:00,47.9,47.9,0.00,ENE,64,0.3,-999.0,99,0.00,,,-99.99,,2013-08-13 16:39:00,
2013-08-13 08:44:00,47.9,47.9,0.00,SSE,153,2.0,-999.0,99,0.00,,,-99.99,,2013-08-13 16:44:00,
2013-08-13 08:49:00,48.0,48.0,0.00,SW,215,0.0,-999.0,99,0.00,,,-99.99,,2013-08-13 16:49:00,
2013-08-13 08:54:00,48.0,48.0,0.00,North,354,2.8,-999.0,100,0.00,,,-99.99,,2013-08-13 16:54:00,
2013-08-13 08:59:00,48.1,48.0,0.00,SE,140,0.4,-999.0,100,0.00,,,-99.99,,2013-08-13 16:59:00,
2013-08-13 09:04:00,48.3,48.2,0.00,NE,35,0.9,-999.0,100,0.00,,,-99.99,,2013-08-13 17:04:00,
2013-08-13 09:09:00,48.5,48.5,0.00,ESE,102,0.9,-999.0,99,0.00,,,-99.99,,2013-08-13 17:09:00,
2013-08-13 09:14:00,48.8,48.8,0.00,North,7,0.8,-999.0,99,0.00,,,-99.99,,2013-08-13 17:14:00,
2013-08-13 09:20:00,48.8,48.7,0.00,NNW,330,1.5,-999.0,99,0.00,,,-99.99,,2013-08-13 17:20:00,
2013-08-13 09:25:00,48.9,48.0,0.00,SW,234,0.8,-999.0,100,0.00,,,-99.99,,2013-08-13 17:25:00,
2013-08-13 09:30:00,49.3,49.3,0.00,NE,38,0.4,-999.0,100,0.00,,,-99.99,,2013-08-13 17:30:00,
2013-08-13 09:35:00,49.2,49.1,0.00,NE,44,0.5,-999.0,100,0.00,,,-99.99,,2013-08-13 17:35:00,
2013-08-13 09:40:00,49.3,49.0,0.00,NNW,335,1.2,-999.0,100,0.00,,,-99.99,,2013-08-13 17:40:00,
2013-08-13 09:45:00,49.2,49.1,0.00,East,85,2.0,-999.0,100,0.00,,,-99.99,,2013-08-13 17:45:00,
2013-08-13 09:50:00,49.0,48.9,0.00,NE,38,0.7,-999.0,100,0.00,,,-99.99,,2013-08-13 17:50:00,
2013-08-13 09:55:00,48.8,48.0,0.00,WSW,258,3.6,-999.0,100,0.00,,,-99.99,,2013-08-13 17:55:00,
2013-08-13 10:00:00,48.9,48.9,0.00,SE,138,2.5,-999.0,99,0.00,,,-99.99,,2013-08-13 18:00:00,
2013-08-13 10:05:00,49.1,49.1,0.00,SE,136,0.7,-999.0,99,0.00,,,-99.99,,2013-08-13 18:05:00,
2013-08-13 10:10:00,48.9,48.9,0.00,NE,53,2.4,-999.0,100,0.00,,,-99.99,,2013-08-13 18:10:00,
2013-08-13 10:15:00,48.8,48.0,0.00,WNW,282,1.8,-999.0,100,0.00,,,-99.99,,2013-08-13 18:15:00,
2013-08-13 10:20:00,48.9,48.9,0.00,North,4,2.8,-999.0,99,0.00,,,-99.99,,2013-08-13 18:20:00,
2013-08-13 10:25:00,48.7,48.7,0.00,NNW,334,0.8,-999.0,99,0.00,,,-99.99,,2013-08-13 18:25:00,
2013-08-13 10:30:00,48.7,48.0,0.00,WNW,300,3.9,-999.0,100,0.00,,,-99.99,,2013-08-13 18:30:00,
2013-08-13 10:35:00,48.7,48.6,0.00,NW,317,3.0,-999.0,99,0.00,,,-99.99,,2013-08-13 18:35:00,
2013-08-13 10:40:00,48.7,48.7,0.00,WNW,297,1.2,-999.0,99,0.00,,,-99.99,,2013-08-13 18:40:00,
2013-08-13 10:45:00,48.9,48.0,0.00,ESE,108,0.8,-999.0,100,0.00,,,-99.99,,2013-08-13 18:45:00,
2013-08-13 10:50:00,49.0,48.0,0.00,WNW,299,1.2,-999.0,100,0.00,,,-99.99,,2013-08-13 18:50:00,
2013-08-13 10:55:00,49.0,49.0,0.00,NE,44,1.0,-999.0,100,0.00,,,-99.99,,2013-08-13 18:55:00,
2013-08-13 11:01:00,49.1,49.1,0.00,NW,305,1.1,-999.0,99,0.00,,,-99.99,,2013-08-13 19:01:00,
2013-08-13 11:08:00,49.4,49.4,0.00,ENE,68,2.0,-999.0,100,0.00,,,-99.99,,2013-08-13 19:08:00,
2013-08-13 11:13:00,49.8,49.7,0.00,West,259,2.9,-999.0,99,0.00,,,-99.99,,2013-08-13 19:13:00,
2013-08-13 11:18:00,49.7,49.7,0.00,South,180,0.3,-999.0,99,0.00,,,-99.99,,2013-08-13 19:18:00,
2013-08-13 11:23:00,49.8,49.8,0.00,East,93,1.3,-999.0,99,0.00,,,-99.99,,2013-08-13 19:23:00,
2013-08-13 11:28:00,50.5,50.5,0.00,North,10,1.0,-999.0,100,0.00,,,-99.99,,2013-08-13 19:28:00,
2013-08-13 11:33:00,51.4,51.0,0.00,NW,306,0.8,-999.0,100,0.00,,,-99.99,,2013-08-13 19:33:00,
2013-08-13 11:38:00,51.3,51.2,0.00,South,191,2.4,-999.0,99,0.00,,,-99.99,,2013-08-13 19:38:00,
2013-08-13 11:43:00,51.0,51.0,0.00,ENE,61,2.1,-999.0,99,0.00,,,-99.99,,2013-08-13 19:43:00,
2013-08-13 11:48:00,50.8,50.7,0.00,WSW,240,1.3,-999.0,99,0.00,,,-99.99,,2013-08-13 19:48:00,
2013-08-13 11:54:00,50.9,50.9,0.00,ENE,59,1.0,-999.0,99,0.00,,,-99.99,,2013-08-13 19:54:00,
2013-08-13 11:59:00,51.5,51.5,0.00,NNW,346,1.1,-999.0,99,0.00,,,-99.99,,2013-08-13 19:59:00,
2013-08-13 12:06:00,50.7,50.7,0.00,SSE,155,0.6,-999.0,99,0.00,,,-99.99,,2013-08-13 20:06:00,
2013-08-13 12:11:00,50.7,50.7,0.00,NE,40,0.8,-999.0,99,0.00,,,-99.99,,2013-08-13 20:11:00,
2013-08-13 12:16:00,51.0,50.9,0.00,SSE,160,1.3,-999.0,99,0.00,,,-99.99,,2013-08-13 20:16:00,
2013-08-13 12:21:00,51.0,50.9,0.00,WSW,256,0.3,-999.0,99,0.00,,,-99.99,,2013-08-13 20:21:00,
2013-08-13 12:26:00,50.7,50.6,0.00,SE,126,0.7,-999.0,99,0.00,,,-99.99,,2013-08-13 20:26:00,
2013-08-13 12:31:00,51.1,51.1,0.00,NE,49,4.3,-999.0,99,0.00,,,-99.99,,2013-08-13 20:31:00,
2013-08-13 12:36:00,51.4,51.4,0.00,ENE,64,3.1,-999.0,99,0.00,,,-99.99,,2013-08-13 20:36:00,
2013-08-13 12:41:00,51.5,51.5,0.00,NE,40,3.4,-999.0,99,0.00,,,-99.99,,2013-08-13 20:41:00,
2013-08-13 12:46:00,51.3,51.2,0.00,NNW,343,4.5,-999.0,99,0.00,,,-99.99,,2013-08-13 20:46:00,
2013-08-13 12:51:00,51.2,51.1,0.00,NE,45,1.8,-999.0,99,0.00,,,-99.99,,2013-08-13 20:51:00,
2013-08-13 12:56:00,51.9,51.8,0.00,NW,305,3.1,-999.0,99,0.00,,,-99.99,,2013-08-13 20:56:00,
2013-08-13 13:01:00,52.1,52.1,0.00,ESE,111,1.2,-999.0,99,0.00,,,-99.99,,2013-08-13 21:01:00,
2013-08-13 13:06:00,51.5,51.5,0.00,ENE,67,2.8,-999.0,99,0.00,,,-99.99,,2013-08-13 21:06:00,
2013-08-13 13:11:00,50.7,50.6,0.00,NW,323,2.9,-999.0,99,0.00,,,-99.99,,2013-08-13 21:11:00,
2013-08-13 13:16:00,50.3,50.2,0.00,SSW,194,0.7,-999.0,99,0.00,,,-99.99,,2013-08-13 21:16:00,
2013-08-13 13:21:00,50.7,50.7,0.00,NNE,31,0.3,-999.0,99,0.00,,,-99.99,,2013-08-13 21:21:00,
2013-08-13 13:26:00,50.9,50.8,0.00,ENE,58,2.7,-999.0,99,0.00,,,-99.99,,2013-08-13 21:26:00,
2013-08-13 13:31:00,51.2,51.1,0.00,SW,214,3.5,-999.0,99,0.00,,,-99.99,,2013-08-13 21:31:00,
2013-08-13 13:36:00,51.7,51.6,0.00,West,259,2.8,-999.0,99,0.00,,,-99.99,,2013-08-13 21:36:00,
2013-08-13 13:41:00,51.8,51.8,0.00,SE,125,1.8,-999.0,99,0.00,,,-99.99,,2013-08-13 21:41:00,
2013-08-13 13:46:00,52.1,52.0,0.00,SW,216,1.5,-999.0,99,0.00,,,-99.99,,2013-08-13 21:46:00,
2013-08-13 13:51:00,52.3,52.2,0.00,NNW,328,0.4,-999.0,99,0.00,,,-99.99,,2013-08-13 21:51:00,
2013-08-13 13:56:00,51.9,51.8,0.00,NW,310,0.4,-999.0,99,0.00,,,-99.99,,2013-08-13 21:56:00,
2013-08-13 14:01:00,52.8,52.7,0.00,South,184,1.1,-999.0,99,0.00,,,-99.99,,2013-08-13 22:01:00,
2013-08-13 14:06:00,52.8,52.7,0.00,SW,234,0.9,-999.0,99,0.00,,,-99.99,,2013-08-13 22:06:00,
2013-08-13 14:11:00,52.7,52.7,0.00,NNE,15,0.1,-999.0,99,0.00,,,-99.99,,2013-08-13 22:11:00,
2013-08-13 14:16:00,52.5,52.4,0.00,NW,304,2.6,-999.0,99,0.00,,,-99.99,,2013-08-13 22:16:00,
2013-08-13 14:21:00,52.5,52.4,0.00,SSE,153,0.6,-999.0,99,0.00,,,-99.99,,2013-08-13 22:21:00,
2013-08-13 14:26:00,52.0,51.9,0.00,East,95,1.0,-999.0,99,0.00,,,-99.99,,2013-08-13 22:26:00,
2013-08-13 14:31:00,51.3,51.2,0.00,ENE,72,0.9,-999.0,99,0.00,,,-99.99,,2013-08-13 22:31:00,
2013-08-13 14:36:00,51.1,51.0,0.00,East,99,0.4,-999.0,99,0.00,,,-99.99,,2013-08-13 22:36:00,
2013-08-13 14:41:00,51.0,50.9,0.00,NW,318,0.2,-999.0,99,0.00,,,-99.99,,2013-08-13 22:41:00,
2013-08-13 14:46:00,50.8,50.8,0.00,East,98,2.8,-999.0,99,0.00,,,-99.99,,2013-08-13 22:46:00,
2013-08-13 14:51:00,50.8,50.7,0.00,NE,56,2.2,-999.0,99,0.00,,,-99.99,,2013-08-13 22:51:00,
2013-08-13 14:56:00,50.5,50.4,0.00,WNW,296,2.2,-999.0,99,0.00,,,-99.99,,2013-08-13 22:56:00,
2013-08-13 15:01:00,50.4,50.3,0.00,ENE,57,0.4,-999.0,99,0.00,,,-99.99,,2013-08-13 23:01:00,
2013-08-13 15:06:00,50.6,50.5,0.00,WNW,284,6.4,-999.0,99,0.00,,,-99.99,,2013-08-13 23:06:00,
2013-08-13 15:11:00,50.5,50.4,0.00,NNE,31,0.8,-999.0,99,0.00,,,-99.99,,2013-08-13 23:11:00,
2013-08-13 15:16:00,50.5,50.4,0.00,South,172,0.5,-999.0,99,0.00,,,-99.99,,2013-08-13 23:16:00,
2013-08-13 15:21:00,50.4,50.3,0.00,North,354,0.8,-999.0,99,0.00,,,-99.99,,2013-08-13 23:21:00,
2013-08-13 15:26:00,50.7,50.6,0.00,NNW,328,1.8,-999.0,99,0.00,,,-99.99,,2013-08-13 23:26:00,
2013-08-13 15:32:00,51.2,51.1,0.00,NE,44,0.3,-999.0,99,0.00,,,-99.99,,2013-08-13 23:32:00,
2013-08-13 15:37:00,51.0,51.0,0.00,East,89,0.8,-999.0,99,0.00,,,-99.99,,2013-08-13 23:37:00,
2013-08-13 15:42:00,50.9,50.8,0.00,NNW,334,2.3,-999.0,99,0.00,,,-99.99,,2013-08-13 23:42:00,
2013-08-13 15:47:00,50.7,50.6,0.00,SE,144,0.5,-999.0,99,0.00,,,-99.99,,2013-08-13 23:47:00,
2013-08-13 15:52:00,50.5,50.5,0.00,East,100,0.6,-999.0,99,0.00,,,-99.99,,2013-08-13 23:52:00,
2013-08-13 15:57:00,50.9,50.8,0.00,WNW,284,3.1,-999.0,99,0.00,,,-99.99,,2013-08-13 23:57:00,
2013-08-13 16:02:00,51.3,51.2,0.00,East,97,0.1,-999.0,99,0.00,,,-99.99,,2013-08-14 00:02:00,
2013-08-13 16:07:00,50.8,50.7,0.00,WNW,297,1.0,-999.0,99,0.00,,,-99.99,,2013-08-14 00:07:00,
2013-08-13 16:12:00,50.8,50.7,0.00,West,277,4.2,-999.0,99,0.00,,,-99.99,,2013-08-14 00:12:00,
2013-08-13 16:17:00,51.0,50.9,0.00,WNW,293,1.0,-999.0,99,0.00,,,-99.99,,2013-08-14 00:17:00,
2013-08-13 16:22:00,51.0,50.9,0.00,SSW,208,0.6,-999.0,99,0.00,,,-99.99,,2013-08-14 00:22:00,
2013-08-13 16:27:00,50.7,50.6,0.00,WNW,287,10.4,-999.0,99,0.00,,,-99.99,,2013-08-14 00:27:00,
2013-08-13 16:32:00,51.0,50.9,0.00,NW,308,4.5,-999.0,99,0.00,,,-99.99,,2013-08-14 00:32:00,
2013-08-13 16:37:00,51.2,51.1,0.00,NW,326,1.8,-999.0,99,0.00,,,-99.99,,2013-08-14 00:37:00,
2013-08-13 16:42:00,50.8,50.8,0.00,NNE,16,2.4,-999.0,99,0.00,,,-99.99,,2013-08-14 00:42:00,
2013-08-13 16:47:00,50.8,50.7,0.00,WSW,248,3.7,-999.0,99,0.00,,,-99.99,,2013-08-14 00:47:00,
2013-08-13 16:52:00,50.4,50.2,0.00,WNW,289,4.3,-999.0,99,0.00,,,-99.99,,2013-08-14 00:52:00,
2013-08-13 16:57:00,51.2,51.1,0.00,WNW,298,1.4,-999.0,99,0.00,,,-99.99,,2013-08-14 00:57:00,
2013-08-13 17:02:00,52.1,52.0,0.00,ENE,72,0.4,-999.0,99,0.00,,,-99.99,,2013-08-14 01:02:00,
2013-08-13 17:07:00,51.1,51.0,0.00,West,266,9.1,-999.0,99,0.00,,,-99.99,,2013-08-14 01:07:00,
2013-08-13 17:12:00,50.7,50.5,0.00,WSW,256,1.9,-999.0,99,0.00,,,-99.99,,2013-08-14 01:12:00,
2013-08-13 17:17:00,50.5,50.4,0.00,South,188,5.3,-999.0,99,0.00,,,-99.99,,2013-08-14 01:17:00,
2013-08-13 17:23:00,51.5,51.4,0.00,WSW,256,1.3,-999.0,99,0.00,,,-99.99,,2013-08-14 01:23:00,
2013-08-13 17:28:00,50.8,50.7,0.00,West,281,0.7,-999.0,99,0.00,,,-99.99,,2013-08-14 01:28:00,
2013-08-13 17:33:00,51.2,51.0,0.00,SE,144,0.8,-999.0,99,0.00,,,-99.99,,2013-08-14 01:33:00,
2013-08-13 17:38:00,50.5,50.3,0.00,ESE,105,3.1,-999.0,99,0.00,,,-99.99,,2013-08-14 01:38:00,
2013-08-13 17:43:00,50.3,50.2,0.00,East,89,0.7,-999.0,99,0.00,,,-99.99,,2013-08-14 01:43:00,
2013-08-13 17:48:00,50.6,50.5,0.00,South,190,5.5,-999.0,99,0.00,,,-99.99,,2013-08-14 01:48:00,
2013-08-13 17:53:00,50.5,50.4,0.00,East,96,0.5,-999.0,99,0.00,,,-99.99,,2013-08-14 01:53:00,
2013-08-13 17:58:00,50.6,50.5,0.00,SE,141,0.5,-999.0,99,0.00,,,-99.99,,2013-08-14 01:58:00,
2013-08-13 18:03:00,50.5,50.4,0.00,ENE,57,2.6,-999.0,99,0.00,,,-99.99,,2013-08-14 02:03:00,
2013-08-13 18:08:00,50.6,50.5,0.00,NNE,15,1.0,-999.0,99,0.00,,,-99.99,,2013-08-14 02:08:00,
2013-08-13 18:13:00,50.6,50.5,0.00,NNE,30,1.0,-999.0,99,0.00,,,-99.99,,2013-08-14 02:13:00,
2013-08-13 18:18:00,50.7,50.6,0.00,ENE,78,0.9,-999.0,99,0.00,,,-99.99,,2013-08-14 02:18:00,
2013-08-13 18:23:00,50.8,50.6,0.00,NW,308,0.1,-999.0,99,0.00,,,-99.99,,2013-08-14 02:23:00,
2013-08-13 18:28:00,50.7,50.6,0.00,SW,218,3.2,-999.0,99,0.00,,,-99.99,,2013-08-14 02:28:00,
2013-08-13 18:33:00,50.4,50.3,0.00,SW,236,5.1,-999.0,99,0.00,,,-99.99,,2013-08-14 02:33:00,
2013-08-13 18:38:00,50.3,50.1,0.00,WNW,297,0.5,-999.0,99,0.00,,,-99.99,,2013-08-14 02:38:00,
2013-08-13 18:43:00,50.2,50.0,0.00,NNW,329,1.1,-999.0,99,0.00,,,-99.99,,2013-08-14 02:43:00,
2013-08-13 18:48:00,50.2,50.0,0.00,West,276,1.8,-999.0,99,0.00,,,-99.99,,2013-08-14 02:48:00,
2013-08-13 18:53:00,50.2,50.1,0.00,ENE,61,0.2,-999.0,99,0.00,,,-99.99,,2013-08-14 02:53:00,
2013-08-13 18:58:00,50.3,50.1,0.00,SSW,197,0.2,-999.0,99,0.00,,,-99.99,,2013-08-14 02:58:00,
2013-08-13 19:03:00,50.2,50.1,0.00,NNW,336,1.0,-999.0,99,0.00,,,-99.99,,2013-08-14 03:03:00,
2013-08-13 19:08:00,50.2,50.0,0.00,West,274,1.0,-999.0,99,0.00,,,-99.99,,2013-08-14 03:08:00,
2013-08-13 19:13:00,49.9,49.8,0.00,West,273,7.8,-999.0,99,0.00,,,-99.99,,2013-08-14 03:13:00,
2013-08-13 19:18:00,49.8,49.7,0.00,North,0,1.2,-999.0,99,0.00,,,-99.99,,2013-08-14 03:18:00,
2013-08-13 19:23:00,49.6,49.5,0.00,NE,37,2.6,-999.0,99,0.00,,,-99.99,,2013-08-14 03:23:00,
2013-08-13 19:28:00,49.4,49.2,0.00,WNW,286,5.7,-999.0,99,0.00,,,-99.99,,2013-08-14 03:28:00,
2013-08-13 19:33:00,49.5,49.4,0.00,ESE,114,3.0,-999.0,99,0.00,,,-99.99,,2013-08-14 03:33:00,
2013-08-13 19:38:00,49.8,49.6,0.00,WSW,242,1.4,-999.0,99,0.00,,,-99.99,,2013-08-14 03:38:00,
2013-08-13 19:43:00,49.7,49.5,0.00,South,187,2.1,-999.0,99,0.00,,,-99.99,,2013-08-14 03:43:00,
2013-08-13 19:48:00,49.7,49.5,0.00,SE,125,0.9,-999.0,99,0.00,,,-99.99,,2013-08-14 03:48:00,
2013-08-13 19:53:00,49.7,49.5,0.00,South,178,4.2,-999.0,99,0.00,,,-99.99,,2013-08-14 03:53:00,
2013-08-13 19:58:00,49.4,49.3,0.00,NNE,20,2.2,-999.0,99,0.00,,,-99.99,,2013-08-14 03:58:00,
2013-08-13 20:01:00,49.5,49.3,0.00,ESE,108,2.5,-999.0,99,0.00,,,-99.99,,2013-08-14 04:01:00,
2013-08-13 20:02:00,49.6,49.5,0.00,SW,228,3.0,-999.0,99,0.00,,,-99.99,,2013-08-14 04:02:00,
2013-08-13 20:03:00,49.6,49.5,0.00,SE,124,4.2,-999.0,99,0.00,,,-99.99,,2013-08-14 04:03:00,
2013-08-13 20:04:00,49.6,49.5,0.00,NNE,33,2.5,-999.0,99,0.00,,,-99.99,,2013-08-14 04:04:00,
2013-08-13 20:09:00,49.4,49.3,0.00,East,98,2.3,-999.0,99,0.00,,,-99.99,,2013-08-14 04:09:00,
2013-08-13 20:11:00,49.2,49.1,0.00,NE,39,5.7,-999.0,99,0.00,,,-99.99,,2013-08-14 04:11:00,
2013-08-13 20:16:00,49.5,49.3,0.00,NE,38,0.9,-999.0,99,0.00,,,-99.99,,2013-08-14 04:16:00,
2013-08-13 20:21:00,49.2,49.0,0.00,West,267,0.7,-999.0,99,0.00,,,-99.99,,2013-08-14 04:21:00,
2013-08-13 20:26:00,49.1,48.9,0.00,SSE,166,2.0,-999.0,99,0.00,,,-99.99,,2013-08-14 04:26:00,
2013-08-13 20:31:00,48.9,48.7,0.00,South,177,1.2,-999.0,99,0.00,,,-99.99,,2013-08-14 04:31:00,
2013-08-13 20:36:00,48.8,48.7,0.00,ENE,64,1.3,-999.0,99,0.00,,,-99.99,,2013-08-14 04:36:00,
2013-08-13 20:41:00,48.7,48.5,0.00,WNW,290,2.1,-999.0,99,0.00,,,-99.99,,2013-08-14 04:41:00,
2013-08-13 20:46:00,48.8,48.6,0.00,South,173,1.0,-999.0,99,0.00,,,-99.99,,2013-08-14 04:46:00,
2013-08-13 20:51:00,48.6,48.4,0.00,WSW,257,2.6,-999.0,99,0.00,,,-99.99,,2013-08-14 04:51:00,
2013-08-13 20:56:00,48.4,48.1,0.00,NW,307,11.8,-999.0,99,0.00,,,-99.99,,2013-08-14 04:56:00,
2013-08-13 21:01:00,48.6,48.4,0.00,WNW,291,12.7,-999.0,99,0.00,,,-99.99,,2013-08-14 05:01:00,
2013-08-13 21:06:00,48.6,48.4,0.00,NW,313,9.4,-999.0,99,0.00,,,-99.99,,2013-08-14 05:06:00,
2013-08-13 21:11:00,48.2,48.0,0.00,NW,311,16.6,-999.0,99,0.01,,,-99.99,,2013-08-14 05:11:00,
2013-08-13 21:16:00,48.4,48.2,0.00,WNW,298,18.7,-999.0,99,0.01,,,-99.99,,2013-08-14 05:16:00,
2013-08-13 21:21:00,48.4,48.2,0.00,NW,316,17.5,-999.0,99,0.01,,,-99.99,,2013-08-14 05:21:00,
2013-08-13 21:26:00,48.4,48.2,0.00,NW,310,17.1,-999.0,99,0.01,,,-99.99,,2013-08-14 05:26:00,
2013-08-13 21:31:00,48.2,48.0,0.00,NW,312,16.5,-999.0,99,0.01,,,-99.99,,2013-08-14 05:31:00,
2013-08-13 21:36:00,48.2,48.0,0.00,NW,317,15.7,-999.0,99,0.01,,,-99.99,,2013-08-14 05:36:00,
2013-08-13 21:41:00,47.9,47.8,0.00,NW,320,16.1,-999.0,99,0.01,,,-99.99,,2013-08-14 05:41:00,
2013-08-13 21:46:00,48.1,47.9,0.00,NW,322,16.0,-999.0,99,0.01,,,-99.99,,2013-08-14 05:46:00,
2013-08-13 21:51:00,48.1,47.9,0.00,NW,313,13.5,-999.0,99,0.01,,,-99.99,,2013-08-14 05:51:00,
2013-08-13 21:56:00,48.1,47.8,0.00,NW,319,11.9,-999.0,99,0.01,,,-99.99,,2013-08-14 05:56:00,
2013-08-13 22:01:00,48.3,48.0,0.00,NW,325,13.4,-999.0,98,0.01,,,-99.99,,2013-08-14 06:01:00,
2013-08-13 22:06:00,48.3,48.0,0.00,NNW,331,12.7,-999.0,98,0.00,,,-99.99,,2013-08-14 06:06:00,
2013-08-13 22:11:00,48.4,47.8,0.00,NW,320,13.9,-999.0,97,0.00,,,-99.99,,2013-08-14 06:11:00,
2013-08-13 22:16:00,48.5,47.7,0.00,NW,315,13.1,-999.0,96,0.00,,,-99.99,,2013-08-14 06:16:00,
2013-08-13 22:21:00,48.4,47.6,0.00,WNW,299,11.9,-999.0,97,0.00,,,-99.99,,2013-08-14 06:21:00,
2013-08-13 22:26:00,47.9,47.2,0.00,WNW,293,12.1,-999.0,97,0.00,,,-99.99,,2013-08-14 06:26:00,
2013-08-13 22:31:00,48.0,47.3,0.00,NW,310,12.9,-999.0,97,0.00,,,-99.99,,2013-08-14 06:31:00,
2013-08-13 22:36:00,47.7,47.0,0.00,NW,304,12.4,-999.0,97,0.00,,,-99.99,,2013-08-14 06:36:00,
2013-08-13 22:41:00,48.1,47.3,0.00,WNW,303,12.7,-999.0,97,0.00,,,-99.99,,2013-08-14 06:41:00,
2013-08-13 22:48:00,48.1,47.4,0.00,NW,313,12.9,-999.0,97,0.00,,,-99.99,,2013-08-14 06:48:00,
2013-08-13 22:53:00,47.7,47.0,0.00,NW,306,10.6,-999.0,97,0.00,,,-99.99,,2013-08-14 06:53:00,
2013-08-13 22:58:00,47.6,47.0,0.00,WNW,302,12.9,-999.0,98,0.00,,,-99.99,,2013-08-14 06:58:00,
2013-08-13 23:04:00,47.5,47.1,0.00,WNW,288,13.6,-999.0,98,0.00,,,-99.99,,2013-08-14 07:04:00,
2013-08-13 23:09:00,47.6,47.3,0.00,WNW,301,12.9,-999.0,98,0.00,,,-99.99,,2013-08-14 07:09:00,
2013-08-13 23:14:00,47.7,47.4,0.00,WNW,294,14.6,-999.0,99,0.00,,,-99.99,,2013-08-14 07:14:00,
2013-08-13 23:19:00,47.4,47.2,0.00,West,264,8.5,-999.0,99,0.00,,,-99.99,,2013-08-14 07:19:00,
2013-08-13 23:24:00,47.4,47.2,0.00,WSW,250,5.5,-999.0,99,0.00,,,-99.99,,2013-08-14 07:24:00,
2013-08-13 23:29:00,47.5,47.3,0.00,NW,313,11.8,-999.0,99,0.00,,,-99.99,,2013-08-14 07:29:00,
2013-08-13 23:34:00,47.3,47.2,0.00,WNW,303,11.4,-999.0,99,0.00,,,-99.99,,2013-08-14 07:34:00,
2013-08-13 23:39:00,47.5,47.3,0.00,NW,315,15.6,-999.0,99,0.00,,,-99.99,,2013-08-14 07:39:00,
2013-08-13 23:44:00,47.5,47.4,0.00,NW,308,15.2,-999.0,99,0.00,,,-99.99,,2013-08-14 07:44:00,
2013-08-13 23:49:00,47.3,47.2,0.00,WNW,289,14.7,-999.0,99,0.00,,,-99.99,,2013-08-14 07:49:00,
2013-08-13 23:54:00,47.7,47.5,0.00,WNW,290,13.6,-999.0,99,0.00,,,-99.99,,2013-08-14 07:54:00,
2013-08-13 23:59:00,47.6,47.2,0.00,NW,304,10.6,-999.0,98,0.00,,,-99.99,,2013-08-14 07:59:00,